Fruitland, New Mexico
Current Conditions -  °F | °C
As of 10:53 PM on Sunday 21 Dec 2014 (Local Time) from KFMN Reporting Station
Clear Clear  
Wind Chill: 27°   Ceiling: Unl
Heat Index: 33°   Visibility: 10mi
Dew Point: 28°   Wind: 7mph
Humidity: 82%   Direction: 250°WSW
Pressure: 29.94"   Gusts: NA
Location:  36.74°N, 108.39°W
Report Text: KFMN 220553Z AUTO 25006KT 10SM CLR 01/M02 A2994 RMK AO2 SLP151 T00061022 10050 20000 51003
Loading
Personal Weather Stations






























Interactive Weather Map New forecast layout! Learn more

10-Day Weather Forecast

Advertisements
Track Severe Weather on mobile